Time;durP1;ratioP1;P1;durP2;ratioP2;P2;SDS_P1;SDS_P2;PMS_P1;PMS_P2;Temp;Humidity;BMP_temperature;BMP_pressure;BME280_temperature;BME280_humidity;BME280_pressure;Samples;Min_cycle;Max_cycle;Signal;HPM_P1;HPM_P2
2023/12/07 00:01:29;;;;;;;64.28;31.00;;;;;;;;;;4995671;28;20034;-59
2023/12/07 00:03:54;;;;;;;67.68;33.50;;;;;;;;;;4995884;28;20069;-60
2023/12/07 00:06:19;;;;;;;68.57;31.60;;;;;;;;;;4978496;28;20461;-62
2023/12/07 00:08:45;;;;;;;63.15;30.33;;;;;;;;;;4995487;28;20034;-60
2023/12/07 00:11:10;;;;;;;68.53;31.13;;;;;;;;;;4995578;28;20045;-59
2023/12/07 00:13:36;;;;;;;67.03;31.13;;;;;;;;;;4994407;28;20032;-59
2023/12/07 00:16:02;;;;;;;65.82;31.58;;;;;;;;;;4977851;28;20491;-59
2023/12/07 00:18:27;;;;;;;67.57;33.28;;;;;;;;;;4977772;28;20030;-60
2023/12/07 00:20:53;;;;;;;72.38;33.75;;;;;;;;;;4995128;28;20044;-60
2023/12/07 00:23:18;;;;;;;66.25;31.10;;;;;;;;;;4995158;28;20376;-59
2023/12/07 00:25:45;;;;;;;64.15;31.05;;;;;;;;;;4995319;28;20373;-63
2023/12/07 00:28:11;;;;;;;66.53;30.20;;;;;;;;;;4994928;28;20038;-63
2023/12/07 00:30:36;;;;;;;66.63;30.15;;;;;;;;;;4977544;28;20387;-60
2023/12/07 00:33:02;;;;;;;70.10;31.33;;;;;;;;;;4995071;28;20081;-60
2023/12/07 00:35:28;;;;;;;66.65;32.40;;;;;;;;;;4995745;28;20034;-62
2023/12/07 00:37:55;;;;;;;67.53;31.52;;;;;;;;;;4995269;28;20026;-63
2023/12/07 00:40:21;;;;;;;62.45;29.83;;;;;;;;;;4994982;28;20121;-59
2023/12/07 00:42:46;;;;;;;67.88;32.88;;;;;;;;;;4977320;28;20154;-59
2023/12/07 00:45:12;;;;;;;69.78;31.35;;;;;;;;;;4994802;28;20523;-62
2023/12/07 00:47:37;;;;;;;69.03;32.15;;;;;;;;;;4994896;28;20027;-59
2023/12/07 00:50:02;;;;;;;68.47;31.95;;;;;;;;;;4995056;28;20053;-59
2023/12/07 00:52:28;;;;;;;69.90;31.25;;;;;;;;;;4994687;28;20453;-59
2023/12/07 00:54:54;;;;;;;67.15;30.65;;;;;;;;;;4994905;28;20027;-59
2023/12/07 00:57:19;;;;;;;68.93;34.45;;;;;;;;;;4994959;28;20115;-59
2023/12/07 00:59:45;;;;;;;74.20;31.88;;;;;;;;;;4995107;28;20038;-58
2023/12/07 01:02:10;;;;;;;69.78;30.90;;;;;;;;;;4994841;28;20070;-58
2023/12/07 01:04:36;;;;;;;66.65;29.17;;;;;;;;;;4995013;28;20051;-58
2023/12/07 01:07:01;;;;;;;65.97;31.88;;;;;;;;;;4994728;28;20031;-58
2023/12/07 01:09:26;;;;;;;69.78;30.90;;;;;;;;;;4995008;28;20034;-58
2023/12/07 01:11:52;;;;;;;65.43;31.42;;;;;;;;;;4994659;28;20027;-62
2023/12/07 01:14:18;;;;;;;68.28;30.95;;;;;;;;;;4995189;28;20034;-62
2023/12/07 01:16:43;;;;;;;67.93;31.95;;;;;;;;;;4994579;28;20025;-62
2023/12/07 01:19:09;;;;;;;66.97;29.80;;;;;;;;;;4994311;28;20039;-62
2023/12/07 01:21:34;;;;;;;74.63;32.20;;;;;;;;;;4977426;28;20161;-62
2023/12/07 01:24:00;;;;;;;70.25;32.55;;;;;;;;;;4996285;28;20105;-59
2023/12/07 01:26:25;;;;;;;70.70;31.13;;;;;;;;;;4980900;28;20049;-59
2023/12/07 01:28:50;;;;;;;74.72;32.47;;;;;;;;;;4998151;28;20121;-59
2023/12/07 01:31:16;;;;;;;68.53;30.45;;;;;;;;;;4980524;28;20034;-59
2023/12/07 01:33:43;;;;;;;62.63;29.60;;;;;;;;;;4980237;28;20461;-62
2023/12/07 01:36:08;;;;;;;67.45;30.35;;;;;;;;;;4998369;28;20026;-62
2023/12/07 01:38:34;;;;;;;65.13;29.10;;;;;;;;;;4998025;28;20429;-62
2023/12/07 01:40:59;;;;;;;65.60;31.27;;;;;;;;;;4997991;28;20050;-62
2023/12/07 01:43:25;;;;;;;60.95;29.65;;;;;;;;;;4998803;28;20113;-63
2023/12/07 01:45:53;;;;;;;68.25;31.13;;;;;;;;;;4998459;28;20022;-62
2023/12/07 01:48:19;;;;;;;73.28;31.70;;;;;;;;;;4981089;28;20121;-62
2023/12/07 01:50:46;;;;;;;63.90;29.83;;;;;;;;;;4998206;28;20077;-63
2023/12/07 01:53:12;;;;;;;67.78;31.55;;;;;;;;;;4998122;28;20051;-62
2023/12/07 01:55:38;;;;;;;60.42;28.70;;;;;;;;;;4998443;28;20022;-63
2023/12/07 01:58:04;;;;;;;65.20;29.67;;;;;;;;;;4998158;28;20027;-63
2023/12/07 02:00:29;;;;;;;67.43;30.25;;;;;;;;;;4997877;28;20113;-59
2023/12/07 02:02:55;;;;;;;66.65;29.70;;;;;;;;;;4980939;28;20030;-59
2023/12/07 02:05:20;;;;;;;65.50;29.40;;;;;;;;;;4997620;28;20113;-59
2023/12/07 02:07:45;;;;;;;68.90;30.13;;;;;;;;;;4998263;28;20376;-59
2023/12/07 02:10:11;;;;;;;63.92;30.00;;;;;;;;;;4997622;28;20177;-59
2023/12/07 02:12:36;;;;;;;61.08;29.05;;;;;;;;;;4980651;28;20041;-59
2023/12/07 02:15:02;;;;;;;61.55;30.02;;;;;;;;;;4997571;28;20031;-59
2023/12/07 02:17:48;;;;;;;56.97;26.50;;;;;;;;;;4997359;28;20018;-59
2023/12/07 02:20:28;;;;;;;56.55;27.52;;;;;;;;;;4996864;28;20485;-59
2023/12/07 02:23:00;;;;;;;57.75;26.60;;;;;;;;;;4998102;28;20469;-59
2023/12/07 02:25:29;;;;;;;50.13;26.35;;;;;;;;;;4997695;28;20077;-59
2023/12/07 02:27:54;;;;;;;50.22;26.17;;;;;;;;;;4980210;28;20033;-58
2023/12/07 02:30:20;;;;;;;55.03;26.45;;;;;;;;;;4997214;28;20034;-59
2023/12/07 02:32:46;;;;;;;51.20;26.58;;;;;;;;;;5020780;23;20145;-62
2023/12/07 02:35:12;;;;;;;48.67;25.83;;;;;;;;;;5016289;28;20105;-63
2023/12/07 02:37:50;;;;;;;47.20;25.80;;;;;;;;;;5017173;28;20520;-63
2023/12/07 02:40:21;;;;;;;52.08;25.80;;;;;;;;;;5016830;28;20042;-59
2023/12/07 02:42:46;;;;;;;;;;;;;;;;;;4995619;23;20058;-59
2023/12/07 02:45:12;;;;;;;45.90;23.67;;;;;;;;;;5021310;22;19921;-63
2023/12/07 02:47:38;;;;;;;50.00;25.60;;;;;;;;;;5016372;28;20033;-59
2023/12/07 02:50:05;;;;;;;43.03;22.83;;;;;;;;;;5016365;28;20427;-59
2023/12/07 02:52:31;;;;;;;49.58;26.08;;;;;;;;;;5016347;28;20032;-60
2023/12/07 02:55:03;;;;;;;46.55;25.42;;;;;;;;;;4982586;28;20034;-60
2023/12/07 02:57:29;;;;;;;46.60;24.73;;;;;;;;;;5016549;28;20037;-59
2023/12/07 02:59:55;;;;;;;46.80;25.40;;;;;;;;;;5016576;28;20029;-60
2023/12/07 03:02:20;;;;;;;43.72;24.83;;;;;;;;;;5016759;28;20034;-60
2023/12/07 03:04:46;;;;;;;45.53;24.05;;;;;;;;;;5016892;28;20030;-59
2023/12/07 03:07:11;;;;;;;44.80;24.33;;;;;;;;;;5016464;28;20072;-59
2023/12/07 03:09:37;;;;;;;43.30;23.40;;;;;;;;;;5016247;28;20033;-59
2023/12/07 03:12:02;;;;;;;43.33;23.60;;;;;;;;;;4999209;28;20045;-60
2023/12/07 03:14:27;;;;;;;41.92;24.25;;;;;;;;;;5016233;28;20022;-59
2023/12/07 03:16:53;;;;;;;42.55;23.00;;;;;;;;;;5016371;28;20030;-59
2023/12/07 03:19:19;;;;;;;47.40;24.75;;;;;;;;;;5016331;28;20118;-59
2023/12/07 03:21:44;;;;;;;45.92;24.45;;;;;;;;;;4998439;28;20053;-59
2023/12/07 03:24:10;;;;;;;48.08;24.23;;;;;;;;;;5015904;28;20476;-59
2023/12/07 03:26:36;;;;;;;45.88;24.40;;;;;;;;;;4998300;28;20045;-59
2023/12/07 03:29:01;;;;;;;46.83;24.38;;;;;;;;;;5015636;28;20412;-59
2023/12/07 03:31:27;;;;;;;50.40;24.27;;;;;;;;;;4998459;28;20026;-59
2023/12/07 03:33:53;;;;;;;47.50;26.13;;;;;;;;;;5015450;28;20112;-59
2023/12/07 03:36:18;;;;;;;49.35;27.50;;;;;;;;;;5015156;28;20021;-59
2023/12/07 03:38:43;;;;;;;50.05;25.80;;;;;;;;;;5015954;28;20040;-59
2023/12/07 03:41:09;;;;;;;49.58;26.55;;;;;;;;;;5015954;28;20117;-59
2023/12/07 03:43:34;;;;;;;48.75;26.17;;;;;;;;;;5015813;28;20030;-59
2023/12/07 03:46:03;;;;;;;52.88;28.85;;;;;;;;;;5015891;28;20033;-59
2023/12/07 03:48:28;;;;;;;57.90;32.80;;;;;;;;;;5015408;28;20519;-59
2023/12/07 03:50:54;;;;;;;70.25;40.83;;;;;;;;;;5015608;28;20038;-61
2023/12/07 03:53:19;;;;;;;76.80;47.05;;;;;;;;;;5015776;28;20041;-61
2023/12/07 03:55:44;;;;;;;80.03;47.72;;;;;;;;;;5015623;28;20058;-61
2023/12/07 03:58:10;;;;;;;63.55;38.38;;;;;;;;;;5014908;28;20017;-61
2023/12/07 04:00:35;;;;;;;58.78;32.90;;;;;;;;;;5015059;28;20489;-60
2023/12/07 04:03:01;;;;;;;53.13;29.02;;;;;;;;;;5015307;28;20045;-60
2023/12/07 04:05:26;;;;;;;50.30;26.98;;;;;;;;;;4997587;28;20034;-59
2023/12/07 04:07:51;;;;;;;49.85;27.77;;;;;;;;;;5014691;28;20117;-59
2023/12/07 04:10:17;;;;;;;52.35;28.38;;;;;;;;;;5013793;28;20073;-59
2023/12/07 04:12:42;;;;;;;62.35;31.25;;;;;;;;;;5014863;28;20014;-60
2023/12/07 04:15:08;;;;;;;57.05;29.95;;;;;;;;;;5014638;28;20373;-59
2023/12/07 04:17:33;;;;;;;56.05;32.60;;;;;;;;;;4997406;28;20018;-60
2023/12/07 04:20:02;;;;;;;57.40;32.53;;;;;;;;;;5127163;22;20625;-61
2023/12/07 04:22:28;;;;;;;126.80;48.15;;;;;;;;;;5015147;28;20025;-62
2023/12/07 04:24:54;;;;;;;100.85;41.50;;;;;;;;;;5015364;28;20034;-62
2023/12/07 04:27:19;;;;;;;79.40;36.33;;;;;;;;;;5015071;28;20069;-61
2023/12/07 04:29:45;;;;;;;59.97;31.90;;;;;;;;;;5014453;28;20443;-62
2023/12/07 04:32:10;;;;;;;50.97;27.33;;;;;;;;;;5014290;28;20030;-62
2023/12/07 04:34:36;;;;;;;55.55;27.23;;;;;;;;;;5014320;28;20022;-62
2023/12/07 04:37:01;;;;;;;50.17;26.13;;;;;;;;;;4997184;28;20095;-62
2023/12/07 04:39:27;;;;;;;57.17;29.52;;;;;;;;;;5014332;28;20469;-62
2023/12/07 04:41:52;;;;;;;57.75;29.90;;;;;;;;;;5014791;28;20045;-62
2023/12/07 04:44:19;;;;;;;59.72;31.27;;;;;;;;;;5014843;28;20030;-62
2023/12/07 04:46:44;;;;;;;86.97;36.55;;;;;;;;;;5013788;28;20061;-62
2023/12/07 04:49:14;;;;;;;128.55;50.50;;;;;;;;;;5013202;28;20076;-61
2023/12/07 04:51:41;;;;;;;102.35;43.38;;;;;;;;;;5013666;28;20017;-61
2023/12/07 04:54:07;;;;;;;61.88;31.15;;;;;;;;;;5014072;28;20034;-61
2023/12/07 04:56:32;;;;;;;48.30;27.95;;;;;;;;;;5014928;28;20080;-61
2023/12/07 04:58:58;;;;;;;49.88;28.05;;;;;;;;;;5013813;28;20026;-61
2023/12/07 05:01:23;;;;;;;50.83;28.02;;;;;;;;;;5014404;28;20037;-61
2023/12/07 05:03:49;;;;;;;53.00;28.05;;;;;;;;;;5012464;28;20104;-61
2023/12/07 05:06:15;;;;;;;51.20;27.88;;;;;;;;;;5013044;28;20037;-61
2023/12/07 05:08:40;;;;;;;49.25;27.90;;;;;;;;;;5011062;28;20038;-61
2023/12/07 05:11:06;;;;;;;52.58;27.58;;;;;;;;;;4995298;28;20037;-62
2023/12/07 05:13:33;;;;;;;52.63;30.15;;;;;;;;;;5013298;28;20041;-62
2023/12/07 05:15:59;;;;;;;55.35;29.77;;;;;;;;;;5013372;28;20034;-61
2023/12/07 05:18:25;;;;;;;54.22;29.70;;;;;;;;;;5013446;28;20034;-61
2023/12/07 05:20:50;;;;;;;53.58;29.45;;;;;;;;;;5013494;28;20067;-62
2023/12/07 05:23:16;;;;;;;48.33;27.00;;;;;;;;;;5014074;28;20038;-63
2023/12/07 05:25:41;;;;;;;51.70;27.35;;;;;;;;;;5013779;28;20430;-62
2023/12/07 05:28:06;;;;;;;50.75;28.98;;;;;;;;;;5012553;28;20026;-63
2023/12/07 05:30:36;;;;;;;58.55;32.85;;;;;;;;;;5013934;28;20125;-62
2023/12/07 05:33:01;;;;;;;55.03;31.63;;;;;;;;;;5014086;28;20160;-62
2023/12/07 05:35:27;;;;;;;50.83;29.08;;;;;;;;;;5013753;28;20112;-62
2023/12/07 05:37:52;;;;;;;52.92;29.35;;;;;;;;;;5013736;28;20026;-62
2023/12/07 05:40:18;;;;;;;54.97;28.48;;;;;;;;;;5013654;28;20120;-62
2023/12/07 05:42:44;;;;;;;48.88;29.25;;;;;;;;;;5013754;28;20042;-62
2023/12/07 05:45:11;;;;;;;50.25;28.83;;;;;;;;;;5013826;28;20030;-62
2023/12/07 05:47:36;;;;;;;49.97;28.30;;;;;;;;;;5013685;28;20025;-62
2023/12/07 05:50:03;;;;;;;52.00;30.02;;;;;;;;;;5013545;28;20383;-62
2023/12/07 05:52:34;;;;;;;51.05;28.48;;;;;;;;;;5013885;28;20022;-62
2023/12/07 05:54:59;;;;;;;51.88;28.33;;;;;;;;;;4996231;28;20061;-62
2023/12/07 05:57:25;;;;;;;51.47;28.33;;;;;;;;;;5013528;28;20069;-62
2023/12/07 05:59:51;;;;;;;48.65;27.70;;;;;;;;;;5013409;28;20084;-62
2023/12/07 06:02:16;;;;;;;53.67;28.95;;;;;;;;;;5013953;28;20096;-62
2023/12/07 06:04:42;;;;;;;51.70;28.88;;;;;;;;;;5013464;28;20475;-62
2023/12/07 06:07:07;;;;;;;53.80;29.95;;;;;;;;;;5013777;28;20026;-62
2023/12/07 06:09:32;;;;;;;56.03;30.13;;;;;;;;;;5011941;28;20030;-62
2023/12/07 06:11:58;;;;;;;53.70;28.80;;;;;;;;;;5016597;28;20445;-62
2023/12/07 06:14:23;;;;;;;51.70;28.38;;;;;;;;;;4999706;28;20486;-62
2023/12/07 06:16:49;;;;;;;51.53;26.75;;;;;;;;;;5017384;28;20390;-62
2023/12/07 06:19:14;;;;;;;49.53;27.63;;;;;;;;;;5017036;28;20021;-62
2023/12/07 06:21:40;;;;;;;50.22;27.70;;;;;;;;;;5016979;28;20082;-62
2023/12/07 06:24:05;;;;;;;44.70;23.83;;;;;;;;;;5017008;28;20030;-62
2023/12/07 06:26:32;;;;;;;53.70;28.77;;;;;;;;;;5015808;28;20037;-62
2023/12/07 06:28:58;;;;;;;54.13;30.08;;;;;;;;;;4983449;28;20399;-62
2023/12/07 06:31:23;;;;;;;56.95;31.08;;;;;;;;;;5016412;28;20037;-62
2023/12/07 06:33:49;;;;;;;54.88;30.75;;;;;;;;;;5016367;28;20030;-62
2023/12/07 06:36:20;;;;;;;58.97;29.35;;;;;;;;;;5016869;28;20034;-62
2023/12/07 06:38:45;;;;;;;60.20;31.25;;;;;;;;;;5015908;28;20034;-62
2023/12/07 06:41:12;;;;;;;64.43;33.28;;;;;;;;;;5015740;28;20101;-62
2023/12/07 06:43:37;;;;;;;55.92;28.88;;;;;;;;;;5016055;28;20034;-62
2023/12/07 06:46:03;;;;;;;53.67;29.10;;;;;;;;;;5017094;28;20030;-62
2023/12/07 06:48:28;;;;;;;55.45;29.52;;;;;;;;;;5016745;28;20022;-62
2023/12/07 06:50:54;;;;;;;52.67;29.42;;;;;;;;;;5016669;28;20034;-62
2023/12/07 06:53:19;;;;;;;58.50;30.00;;;;;;;;;;5016394;28;20030;-62
2023/12/07 06:55:45;;;;;;;56.95;30.73;;;;;;;;;;5016381;28;20470;-62
2023/12/07 06:58:11;;;;;;;58.92;30.27;;;;;;;;;;5016601;28;20022;-62
2023/12/07 07:00:36;;;;;;;56.40;30.13;;;;;;;;;;5015080;28;20041;-62
2023/12/07 07:03:01;;;;;;;55.45;29.40;;;;;;;;;;5016790;28;20037;-62
2023/12/07 07:05:27;;;;;;;63.25;31.25;;;;;;;;;;4998580;28;20030;-58
2023/12/07 07:07:52;;;;;;;56.15;29.73;;;;;;;;;;5016106;28;20033;-58
2023/12/07 07:10:17;;;;;;;55.22;31.45;;;;;;;;;;5016526;28;20034;-58
2023/12/07 07:12:43;;;;;;;62.92;32.60;;;;;;;;;;5016068;28;20501;-58
2023/12/07 07:15:08;;;;;;;59.78;32.08;;;;;;;;;;5016247;28;20418;-58
2023/12/07 07:17:34;;;;;;;59.97;32.80;;;;;;;;;;5015971;28;20021;-61
2023/12/07 07:19:59;;;;;;;67.55;33.15;;;;;;;;;;5015720;28;20514;-62
2023/12/07 07:22:24;;;;;;;65.35;33.03;;;;;;;;;;5016262;28;20072;-62
2023/12/07 07:24:50;;;;;;;58.10;30.73;;;;;;;;;;5015799;28;20112;-62
2023/12/07 07:27:15;;;;;;;60.83;33.42;;;;;;;;;;4982103;28;20117;-62
2023/12/07 07:29:40;;;;;;;58.78;31.45;;;;;;;;;;5015644;28;20080;-62
2023/12/07 07:32:06;;;;;;;57.58;31.35;;;;;;;;;;5014386;28;20030;-62
2023/12/07 07:34:31;;;;;;;86.25;41.17;;;;;;;;;;5015881;28;20034;-62
2023/12/07 07:36:57;;;;;;;131.10;59.95;;;;;;;;;;5016099;28;20029;-62
2023/12/07 07:39:22;;;;;;;89.88;44.40;;;;;;;;;;5015431;28;20472;-62
2023/12/07 07:41:47;;;;;;;67.30;35.13;;;;;;;;;;4982943;28;20108;-62
2023/12/07 07:44:13;;;;;;;65.00;34.28;;;;;;;;;;4997934;28;20061;-62
2023/12/07 07:46:40;;;;;;;66.00;35.00;;;;;;;;;;5014155;28;20528;-62
2023/12/07 07:49:06;;;;;;;75.15;41.20;;;;;;;;;;5015577;28;20045;-62
2023/12/07 07:51:32;;;;;;;60.38;34.80;;;;;;;;;;4997720;28;20479;-62
2023/12/07 07:53:58;;;;;;;68.65;40.03;;;;;;;;;;5015541;28;20468;-62
2023/12/07 07:56:23;;;;;;;77.57;40.60;;;;;;;;;;5015218;28;20029;-58
2023/12/07 07:58:49;;;;;;;59.25;33.33;;;;;;;;;;5027507;23;20500;-58
2023/12/07 08:01:14;;;;;;;55.05;30.63;;;;;;;;;;5027425;23;20053;-61
2023/12/07 08:03:40;;;;;;;50.35;28.40;;;;;;;;;;5015131;28;20491;-58
2023/12/07 08:06:06;;;;;;;52.97;29.20;;;;;;;;;;5015058;28;20404;-61
2023/12/07 08:08:31;;;;;;;51.60;28.83;;;;;;;;;;5013804;28;20537;-62
2023/12/07 08:10:57;;;;;;;50.03;28.50;;;;;;;;;;5014915;28;20061;-62
2023/12/07 08:13:22;;;;;;;48.63;28.08;;;;;;;;;;4998004;28;20097;-62
2023/12/07 08:15:47;;;;;;;46.78;27.65;;;;;;;;;;5014892;28;20026;-58
2023/12/07 08:18:14;;;;;;;49.45;28.33;;;;;;;;;;5015357;28;20117;-58
2023/12/07 08:20:39;;;;;;;52.50;28.83;;;;;;;;;;5015084;28;20049;-58
2023/12/07 08:23:05;;;;;;;50.70;27.60;;;;;;;;;;4997211;28;20030;-59
2023/12/07 08:25:31;;;;;;;46.88;26.83;;;;;;;;;;5013472;28;20471;-58
2023/12/07 08:27:57;;;;;;;47.65;26.75;;;;;;;;;;5015252;28;20030;-58
2023/12/07 08:30:22;;;;;;;48.75;27.52;;;;;;;;;;5014550;28;20456;-58
2023/12/07 08:32:48;;;;;;;49.03;27.88;;;;;;;;;;5014068;28;20018;-58
2023/12/07 08:35:13;;;;;;;49.10;27.15;;;;;;;;;;5014553;28;20459;-58
2023/12/07 08:37:39;;;;;;;42.92;25.65;;;;;;;;;;5014798;28;20022;-61
2023/12/07 08:40:05;;;;;;;44.47;25.77;;;;;;;;;;4997066;28;20026;-62
2023/12/07 08:42:31;;;;;;;47.10;26.27;;;;;;;;;;5014725;28;20033;-62
2023/12/07 08:44:58;;;;;;;47.70;26.85;;;;;;;;;;5014414;28;20030;-62
2023/12/07 08:47:25;;;;;;;47.25;26.60;;;;;;;;;;4980705;28;20030;-62
2023/12/07 08:49:52;;;;;;;47.92;26.75;;;;;;;;;;5014495;28;20029;-62
2023/12/07 08:52:17;;;;;;;51.50;27.38;;;;;;;;;;5014790;28;20022;-62
2023/12/07 08:54:43;;;;;;;48.30;26.73;;;;;;;;;;5014794;28;20030;-62
2023/12/07 08:57:08;;;;;;;52.60;29.23;;;;;;;;;;5014474;28;20526;-62
2023/12/07 08:59:34;;;;;;;50.42;28.85;;;;;;;;;;5014482;28;20037;-62
2023/12/07 09:01:59;;;;;;;46.88;25.95;;;;;;;;;;5014279;28;20046;-62
2023/12/07 09:04:25;;;;;;;45.55;25.27;;;;;;;;;;4997024;28;20038;-62
2023/12/07 09:06:50;;;;;;;41.20;23.95;;;;;;;;;;5014346;28;20033;-62
2023/12/07 09:09:16;;;;;;;37.55;22.38;;;;;;;;;;5013981;28;20041;-62
2023/12/07 09:11:41;;;;;;;37.05;22.45;;;;;;;;;;5014121;28;20482;-62
2023/12/07 09:14:06;;;;;;;37.78;22.83;;;;;;;;;;5014258;28;20021;-62
2023/12/07 09:16:32;;;;;;;38.70;22.75;;;;;;;;;;5013963;28;20502;-62
2023/12/07 09:18:57;;;;;;;43.17;23.48;;;;;;;;;;5012705;28;20468;-62
2023/12/07 09:21:23;;;;;;;39.08;23.23;;;;;;;;;;5013889;28;20422;-62
2023/12/07 09:23:48;;;;;;;41.90;23.90;;;;;;;;;;4980154;28;20039;-62
2023/12/07 09:26:13;;;;;;;37.88;23.50;;;;;;;;;;4996658;28;20025;-62
2023/12/07 09:28:39;;;;;;;43.88;23.67;;;;;;;;;;5013828;28;20464;-62
2023/12/07 09:31:05;;;;;;;42.00;23.95;;;;;;;;;;5013761;28;20064;-62
2023/12/07 09:33:30;;;;;;;36.42;22.67;;;;;;;;;;4996272;28;20080;-62
2023/12/07 09:35:55;;;;;;;38.40;22.35;;;;;;;;;;5013823;28;20028;-62
2023/12/07 09:38:21;;;;;;;37.42;22.13;;;;;;;;;;5013806;28;20109;-62
2023/12/07 09:40:47;;;;;;;37.50;22.05;;;;;;;;;;5025532;23;20072;-59
2023/12/07 09:43:13;;;;;;;41.13;23.23;;;;;;;;;;4996179;28;20041;-58
2023/12/07 09:45:38;;;;;;;41.00;23.40;;;;;;;;;;5016677;28;20399;-59
2023/12/07 09:48:04;;;;;;;38.30;22.45;;;;;;;;;;5017750;28;20069;-58
2023/12/07 09:50:30;;;;;;;37.72;22.63;;;;;;;;;;5017683;28;20034;-58
2023/12/07 09:52:56;;;;;;;38.15;23.00;;;;;;;;;;5000481;28;20427;-58
2023/12/07 09:55:22;;;;;;;45.80;25.38;;;;;;;;;;5017537;28;20030;-59
2023/12/07 09:57:47;;;;;;;55.47;29.92;;;;;;;;;;5017890;28;20033;-59
2023/12/07 10:00:17;;;;;;;62.70;37.08;;;;;;;;;;5017586;28;20065;-59
2023/12/07 10:02:44;;;;;;;256.75;125.05;;;;;;;;;;5017703;28;20080;-59
2023/12/07 10:05:10;;;;;;;94.50;54.35;;;;;;;;;;5016243;28;20041;-58
2023/12/07 10:07:37;;;;;;;83.55;42.30;;;;;;;;;;5017283;28;20034;-59
2023/12/07 10:10:03;;;;;;;71.28;38.75;;;;;;;;;;5017329;28;20482;-59
2023/12/07 10:12:35;;;;;;;54.20;30.17;;;;;;;;;;4999653;28;20022;-59
2023/12/07 10:15:17;;;;;;;38.38;24.35;;;;;;;;;;4999902;28;20129;-59
2023/12/07 10:17:47;;;;;;;37.05;21.63;;;;;;;;;;5017524;28;20033;-58
2023/12/07 10:20:14;;;;;;;38.92;22.85;;;;;;;;;;5017377;28;20112;-58
2023/12/07 10:22:39;;;;;;;32.70;20.38;;;;;;;;;;5017355;28;20084;-59
2023/12/07 10:25:05;;;;;;;32.85;20.00;;;;;;;;;;5017456;28;20030;-59
2023/12/07 10:27:30;;;;;;;31.40;19.30;;;;;;;;;;5017565;28;20522;-59
2023/12/07 10:29:58;;;;;;;32.75;20.55;;;;;;;;;;5016820;28;20553;-59
2023/12/07 10:32:23;;;;;;;30.83;20.13;;;;;;;;;;5016913;28;20073;-59
2023/12/07 10:34:49;;;;;;;30.83;19.50;;;;;;;;;;5016772;28;20460;-59
2023/12/07 10:37:15;;;;;;;32.30;21.58;;;;;;;;;;5016725;28;20022;-58
2023/12/07 10:39:40;;;;;;;47.30;27.75;;;;;;;;;;5017041;28;20460;-59
2023/12/07 10:42:09;;;;;;;52.92;30.05;;;;;;;;;;5016705;28;20050;-58
2023/12/07 10:44:35;;;;;;;47.42;27.48;;;;;;;;;;5016604;28;20061;-59
2023/12/07 10:47:01;;;;;;;46.03;26.90;;;;;;;;;;5016973;28;20099;-58
2023/12/07 10:49:27;;;;;;;64.90;34.20;;;;;;;;;;5016703;28;20113;-58
2023/12/07 10:51:59;;;;;;;112.28;51.55;;;;;;;;;;5016807;28;20380;-58
2023/12/07 10:54:26;;;;;;;39.88;25.30;;;;;;;;;;5016704;28;20022;-59
2023/12/07 10:56:52;;;;;;;37.30;20.88;;;;;;;;;;5015646;28;20104;-58
2023/12/07 10:59:18;;;;;;;48.38;26.63;;;;;;;;;;5016703;28;20479;-59
2023/12/07 11:01:43;;;;;;;36.95;21.48;;;;;;;;;;5016741;28;20053;-58
2023/12/07 11:04:12;;;;;;;29.38;19.60;;;;;;;;;;4998936;28;20037;-59
2023/12/07 11:06:39;;;;;;;25.35;16.92;;;;;;;;;;4999209;28;20116;-59
2023/12/07 11:09:08;;;;;;;28.17;17.77;;;;;;;;;;5016646;28;20132;-58
2023/12/07 11:11:41;;;;;;;23.98;16.40;;;;;;;;;;5016381;28;20049;-58
2023/12/07 11:14:07;;;;;;;30.27;18.65;;;;;;;;;;5016311;28;20065;-58
2023/12/07 11:16:34;;;;;;;28.55;18.08;;;;;;;;;;5016316;28;20109;-58
2023/12/07 11:19:00;;;;;;;27.48;17.95;;;;;;;;;;5016082;28;20026;-58
2023/12/07 11:21:25;;;;;;;27.92;17.05;;;;;;;;;;5016211;28;20519;-58
2023/12/07 11:23:52;;;;;;;25.27;16.20;;;;;;;;;;4998284;28;20482;-59
2023/12/07 11:26:24;;;;;;;23.58;16.08;;;;;;;;;;5016085;28;20029;-58
2023/12/07 11:28:49;;;;;;;29.00;17.52;;;;;;;;;;5015696;28;20057;-58
2023/12/07 11:31:15;;;;;;;28.25;17.83;;;;;;;;;;4998126;28;20029;-58
2023/12/07 11:33:41;;;;;;;27.17;17.48;;;;;;;;;;5014425;28;20084;-58
2023/12/07 11:36:06;;;;;;;28.73;17.48;;;;;;;;;;5015611;28;20028;-58
2023/12/07 11:38:32;;;;;;;31.08;17.85;;;;;;;;;;5015888;28;20034;-58
2023/12/07 11:40:57;;;;;;;30.25;17.35;;;;;;;;;;5015378;28;20057;-58
2023/12/07 11:43:32;;;;;;;25.30;17.00;;;;;;;;;;5015637;28;20586;-58
2023/12/07 11:45:57;;;;;;;30.60;17.95;;;;;;;;;;5015864;28;20041;-58
2023/12/07 11:48:23;;;;;;;27.45;16.98;;;;;;;;;;5015690;28;20033;-58
2023/12/07 11:50:58;;;;;;;28.58;18.08;;;;;;;;;;5015291;28;20029;-61
2023/12/07 11:53:24;;;;;;;25.80;17.00;;;;;;;;;;5015639;28;20030;-62
2023/12/07 11:55:50;;;;;;;30.13;18.23;;;;;;;;;;5015298;28;20422;-62
2023/12/07 11:58:16;;;;;;;27.55;17.67;;;;;;;;;;5015243;28;20021;-62
2023/12/07 12:00:41;;;;;;;29.58;17.92;;;;;;;;;;5015468;28;20034;-62
2023/12/07 12:03:06;;;;;;;28.75;17.33;;;;;;;;;;5015140;28;20033;-61
2023/12/07 12:05:32;;;;;;;27.10;16.95;;;;;;;;;;5015098;28;20387;-61
2023/12/07 12:07:57;;;;;;;29.90;17.67;;;;;;;;;;5014025;28;20379;-61
2023/12/07 12:10:25;;;;;;;26.48;16.83;;;;;;;;;;5015490;28;20028;-62
2023/12/07 12:12:51;;;;;;;29.38;17.75;;;;;;;;;;5015263;28;20034;-62
2023/12/07 12:15:16;;;;;;;34.00;20.00;;;;;;;;;;5015177;28;20563;-62
2023/12/07 12:17:42;;;;;;;37.90;21.60;;;;;;;;;;5014966;28;20033;-62
2023/12/07 12:20:10;;;;;;;38.55;23.08;;;;;;;;;;5014940;28;20116;-62
2023/12/07 12:22:38;;;;;;;35.88;20.55;;;;;;;;;;5015098;28;20026;-62
2023/12/07 12:25:04;;;;;;;36.03;19.33;;;;;;;;;;5015029;28;20064;-62
2023/12/07 12:27:30;;;;;;;32.20;19.05;;;;;;;;;;5015183;28;20029;-62
2023/12/07 12:29:55;;;;;;;33.08;18.48;;;;;;;;;;5014872;28;20040;-62
2023/12/07 12:32:22;;;;;;;28.13;16.67;;;;;;;;;;5013418;28;20112;-62
2023/12/07 12:34:50;;;;;;;27.50;16.20;;;;;;;;;;5014834;28;20064;-62
2023/12/07 12:37:16;;;;;;;65.00;34.03;;;;;;;;;;5014880;28;20095;-62
2023/12/07 12:39:41;;;;;;;80.22;43.50;;;;;;;;;;5014474;28;20471;-62
2023/12/07 12:42:06;;;;;;;44.28;25.52;;;;;;;;;;5014396;28;20369;-62
2023/12/07 12:44:32;;;;;;;33.55;20.08;;;;;;;;;;4996931;28;20038;-62
2023/12/07 12:46:57;;;;;;;49.75;27.08;;;;;;;;;;5013979;28;20033;-62
2023/12/07 12:49:22;;;;;;;43.33;23.50;;;;;;;;;;5014550;28;20041;-62
2023/12/07 12:51:49;;;;;;;31.08;19.02;;;;;;;;;;5014308;28;20391;-62
2023/12/07 12:54:14;;;;;;;29.10;18.27;;;;;;;;;;5014542;28;20068;-62
2023/12/07 12:56:40;;;;;;;25.08;17.05;;;;;;;;;;5014796;28;20061;-62
2023/12/07 12:59:06;;;;;;;23.92;16.75;;;;;;;;;;5014189;28;20548;-62
2023/12/07 13:01:31;;;;;;;27.90;17.58;;;;;;;;;;5014250;28;20160;-62
2023/12/07 13:03:57;;;;;;;28.10;17.15;;;;;;;;;;5014327;28;20034;-62
2023/12/07 13:06:23;;;;;;;30.45;18.38;;;;;;;;;;5014116;28;20028;-62
2023/12/07 13:08:48;;;;;;;35.67;21.02;;;;;;;;;;4996524;28;20034;-62
2023/12/07 13:11:19;;;;;;;39.80;23.33;;;;;;;;;;5014507;28;20169;-62
2023/12/07 13:13:47;;;;;;;40.45;23.40;;;;;;;;;;4980334;28;20030;-59
2023/12/07 13:16:12;;;;;;;40.63;24.20;;;;;;;;;;5007781;23;21480;-58
2023/12/07 13:18:38;;;;;;;43.10;24.90;;;;;;;;;;5013863;28;20026;-59
2023/12/07 13:21:03;;;;;;;41.05;24.80;;;;;;;;;;5013649;28;20034;-61
2023/12/07 13:23:28;;;;;;;41.30;24.45;;;;;;;;;;5014200;28;20471;-62
2023/12/07 13:25:54;;;;;;;44.72;24.70;;;;;;;;;;5013836;28;20477;-62
2023/12/07 13:28:19;;;;;;;43.22;26.20;;;;;;;;;;5014161;28;20041;-62
2023/12/07 13:30:44;;;;;;;47.15;28.42;;;;;;;;;;5014011;28;20092;-62
2023/12/07 13:33:10;;;;;;;47.95;27.63;;;;;;;;;;5013822;28;20531;-62
2023/12/07 13:35:35;;;;;;;46.17;26.70;;;;;;;;;;5012560;28;20034;-62
2023/12/07 13:38:01;;;;;;;44.15;26.30;;;;;;;;;;5013757;28;20026;-62
2023/12/07 13:40:27;;;;;;;46.95;26.88;;;;;;;;;;5014064;28;20460;-62
2023/12/07 13:42:53;;;;;;;45.08;26.90;;;;;;;;;;4996282;28;20490;-62
2023/12/07 13:45:19;;;;;;;48.75;28.17;;;;;;;;;;4996152;28;20365;-62
2023/12/07 13:47:44;;;;;;;45.03;26.35;;;;;;;;;;5013711;28;20499;-62
2023/12/07 13:50:11;;;;;;;49.03;26.35;;;;;;;;;;5013860;28;20037;-62
2023/12/07 13:52:37;;;;;;;56.40;31.95;;;;;;;;;;5013668;28;20030;-62
2023/12/07 13:55:02;;;;;;;61.50;32.83;;;;;;;;;;5013869;28;20038;-62
2023/12/07 13:57:27;;;;;;;52.58;28.70;;;;;;;;;;5014149;28;20036;-62
2023/12/07 13:59:54;;;;;;;48.42;26.73;;;;;;;;;;5013581;28;20030;-62
2023/12/07 14:02:19;;;;;;;41.50;24.83;;;;;;;;;;5013553;28;20033;-62
2023/12/07 14:04:51;;;;;;;49.80;27.70;;;;;;;;;;4996301;28;20033;-62
2023/12/07 14:07:17;;;;;;;50.17;27.23;;;;;;;;;;5013842;28;20040;-62
2023/12/07 14:09:43;;;;;;;47.97;26.80;;;;;;;;;;4995789;28;20092;-62